Time;durP1;ratioP1;P1;durP2;ratioP2;P2;SDS_P1;SDS_P2;PMS_P1;PMS_P2;Temp;Humidity;BMP_temperature;BMP_pressure;BME280_temperature;BME280_humidity;BME280_pressure;Samples;Min_cycle;Max_cycle;Signal;HPM_P1;HPM_P2
2023/10/26 00:02:16;;;;;;;5.00;4.60;;;;;;;11.61;100.00;98553.53;7386431;19;20403;-74
2023/10/26 00:04:43;;;;;;;5.43;4.53;;;;;;;11.61;100.00;98554.31;7394951;19;20888;-74
2023/10/26 00:07:10;;;;;;;5.20;4.70;;;;;;;11.62;100.00;98553.28;7388868;19;20708;-74
2023/10/26 00:09:37;;;;;;;5.75;5.15;;;;;;;11.64;100.00;98558.34;7389344;19;20436;-74
2023/10/26 00:12:04;;;;;;;5.40;4.90;;;;;;;11.65;100.00;98554.66;7391532;19;20364;-74
2023/10/26 00:14:33;;;;;;;6.00;5.40;;;;;;;11.65;100.00;98553.88;7392896;19;20368;-74
2023/10/26 00:17:00;;;;;;;5.60;5.10;;;;;;;11.65;100.00;98559.97;7391914;19;20376;-74
2023/10/26 00:19:29;;;;;;;6.85;6.15;;;;;;;11.67;100.00;98554.41;7393912;19;20361;-74
2023/10/26 00:21:56;;;;;;;6.60;6.00;;;;;;;11.67;100.00;98554.41;7391277;19;20483;-74
2023/10/26 00:24:23;;;;;;;6.90;6.20;;;;;;;11.67;100.00;98563.22;7389792;19;20651;-74
2023/10/26 00:26:50;;;;;;;7.50;6.70;;;;;;;11.68;100.00;98562.16;7394372;19;20519;-74
2023/10/26 00:29:17;;;;;;;7.20;6.40;;;;;;;11.68;100.00;98553.38;7391775;19;20372;-74
2023/10/26 00:31:43;;;;;;;7.07;6.38;;;;;;;11.67;100.00;98557.91;7393304;19;20447;-74
2023/10/26 00:34:10;;;;;;;6.60;5.85;;;;;;;11.66;100.00;98566.09;7392534;19;20368;-74
2023/10/26 00:36:37;;;;;;;6.72;5.75;;;;;;;11.67;100.00;98562.38;7393758;19;20851;-74
2023/10/26 00:39:04;;;;;;;6.82;6.20;;;;;;;11.67;100.00;98565.03;7390540;19;20361;-74
2023/10/26 00:41:31;;;;;;;5.63;5.13;;;;;;;11.68;100.00;98561.34;7391773;19;20348;-74
2023/10/26 00:43:58;;;;;;;6.07;5.47;;;;;;;11.69;100.00;98553.16;7388536;19;20336;-74
2023/10/26 00:46:25;;;;;;;6.15;5.55;;;;;;;11.68;100.00;98559.50;7390318;19;20387;-73
2023/10/26 00:48:52;;;;;;;5.80;5.20;;;;;;;11.68;100.00;98559.50;7392155;19;20412;-73
2023/10/26 00:51:19;;;;;;;6.10;5.50;;;;;;;11.68;100.00;98551.53;7392332;19;20419;-74
2023/10/26 00:53:46;;;;;;;6.30;5.70;;;;;;;11.70;100.00;98546.00;7393040;19;20353;-74
2023/10/26 00:56:14;;;;;;;6.97;5.82;;;;;;;11.70;100.00;98560.06;7389222;19;20372;-74
2023/10/26 00:58:42;;;;;;;7.18;6.47;;;;;;;11.69;100.00;98555.00;7386922;19;20369;-74
2023/10/26 01:01:09;;;;;;;6.25;5.70;;;;;;;11.67;100.00;98555.25;7390240;19;20440;-74
2023/10/26 01:03:39;;;;;;;4.72;4.32;;;;;;;11.65;100.00;98554.66;7394700;19;20358;-74
2023/10/26 01:06:08;;;;;;;5.30;4.65;;;;;;;11.67;100.00;98563.22;7391604;19;20352;-74
2023/10/26 01:08:35;;;;;;;5.85;4.35;;;;;;;11.65;100.00;98559.97;7391692;19;20368;-74
2023/10/26 01:11:05;;;;;;;5.27;4.73;;;;;;;11.66;100.00;98558.94;7390595;19;20382;-74
2023/10/26 01:13:33;;;;;;;4.80;4.25;;;;;;;11.69;100.00;98560.31;7388342;19;20731;-74
2023/10/26 01:16:02;;;;;;;4.57;4.03;;;;;;;11.69;100.00;98561.13;7386092;19;20375;-74
2023/10/26 01:18:30;;;;;;;5.30;4.70;;;;;;;11.69;100.00;98561.13;7387851;19;20878;-74
2023/10/26 01:20:57;;;;;;;4.75;4.25;;;;;;;11.66;100.00;98566.91;7387132;19;20408;-74
2023/10/26 01:23:24;;;;;;;5.55;4.63;;;;;;;11.67;100.00;98568.53;7389586;19;20364;-74
2023/10/26 01:25:54;;;;;;;5.03;4.47;;;;;;;11.65;100.00;98573.25;7389720;19;20353;-74
2023/10/26 01:28:21;;;;;;;4.70;4.07;;;;;;;11.64;100.00;98563.66;7389003;19;20404;-74
2023/10/26 01:30:49;;;;;;;4.45;3.85;;;;;;;11.64;100.00;98558.34;7389847;19;20363;-74
2023/10/26 01:33:15;;;;;;;4.38;3.97;;;;;;;11.64;100.00;98563.66;7390817;19;20702;-74
2023/10/26 01:35:44;;;;;;;7.97;7.18;;;;;;;11.62;100.00;98569.22;7392470;19;20360;-74
2023/10/26 01:38:12;;;;;;;4.65;4.07;;;;;;;11.63;100.00;98556.75;7388695;19;20432;-74
2023/10/26 01:40:39;;;;;;;4.95;4.43;;;;;;;11.63;100.00;98568.19;7385699;19;20360;-74
2023/10/26 01:43:06;;;;;;;4.50;3.90;;;;;;;11.62;100.00;98561.25;7392529;19;20835;-74
2023/10/26 01:45:33;;;;;;;4.57;4.18;;;;;;;11.64;100.00;98558.34;7388665;19;20354;-73
2023/10/26 01:48:02;;;;;;;5.03;4.45;;;;;;;11.63;100.00;98557.56;7389509;19;20377;-73
2023/10/26 01:50:31;;;;;;;5.30;4.80;;;;;;;11.63;100.00;98554.09;7394476;19;20336;-73
2023/10/26 01:52:58;;;;;;;5.40;4.90;;;;;;;11.62;100.00;98555.13;7399419;19;21172;-73
2023/10/26 01:55:25;;;;;;;5.72;4.53;;;;;;;11.65;100.00;98556.53;7398988;19;20368;-73
2023/10/26 01:57:51;;;;;;;5.40;4.90;;;;;;;11.65;100.00;98559.19;7394752;19;20849;-73
2023/10/26 02:00:18;;;;;;;5.65;5.05;;;;;;;11.62;100.00;98550.63;7393058;19;20883;-73
2023/10/26 02:02:47;;;;;;;5.65;5.15;;;;;;;11.61;100.00;98556.97;7393022;19;20377;-73
2023/10/26 02:05:14;;;;;;;6.30;5.70;;;;;;;11.61;100.00;98554.31;7397696;19;20364;-73
2023/10/26 02:07:42;;;;;;;7.53;6.78;;;;;;;11.63;100.00;98554.09;7395135;19;20398;-73
2023/10/26 02:10:13;;;;;;;6.47;5.87;;;;;;;11.60;100.00;98551.91;7395401;19;20419;-73
2023/10/26 02:12:40;;;;;;;6.55;5.95;;;;;;;11.61;100.00;98553.53;7394116;19;20865;-73
2023/10/26 02:15:08;;;;;;;6.97;6.27;;;;;;;11.62;100.00;98561.25;7396757;19;20439;-73
2023/10/26 02:17:36;;;;;;;7.25;6.57;;;;;;;11.62;100.00;98552.47;7392266;19;20356;-73
2023/10/26 02:20:04;;;;;;;7.90;6.47;;;;;;;11.62;100.00;98552.47;7398175;19;20351;-73
2023/10/26 02:22:31;;;;;;;7.22;6.55;;;;;;;11.63;100.00;98551.44;7395690;19;20384;-73
2023/10/26 02:24:58;;;;;;;7.55;6.93;;;;;;;11.64;100.00;98555.69;7396712;19;20375;-73
2023/10/26 02:27:25;;;;;;;7.18;6.32;;;;;;;11.64;100.00;98561.00;7395467;19;20377;-73
2023/10/26 02:29:52;;;;;;;7.22;6.53;;;;;;;11.62;100.00;98561.25;7394598;19;20357;-73
2023/10/26 02:32:19;;;;;;;7.73;7.03;;;;;;;11.63;100.00;98570.03;7393832;19;20467;-73
2023/10/26 02:34:46;;;;;;;7.40;6.70;;;;;;;11.64;100.00;98563.66;7396194;19;20435;-73
2023/10/26 02:37:14;;;;;;;7.28;6.57;;;;;;;11.65;100.00;98562.63;7395074;19;20345;-74
2023/10/26 02:39:41;;;;;;;7.53;6.82;;;;;;;11.65;100.00;98569.81;7396615;19;20336;-74
2023/10/26 02:42:09;;;;;;;7.80;7.10;;;;;;;11.66;100.00;98560.78;7393552;19;20368;-74
2023/10/26 02:44:36;;;;;;;7.50;6.80;;;;;;;11.65;100.00;98578.56;7396130;19;20391;-74
2023/10/26 02:47:03;;;;;;;7.70;7.00;;;;;;;11.67;100.00;98576.50;7394837;19;20376;-74
2023/10/26 02:49:33;;;;;;;7.90;7.10;;;;;;;11.67;100.00;98568.53;7393458;19;20360;-74
2023/10/26 02:52:00;;;;;;;7.63;6.93;;;;;;;11.67;100.00;98573.84;7396463;19;20376;-74
2023/10/26 02:54:28;;;;;;;7.97;7.18;;;;;;;11.70;100.00;98577.88;7396606;19;20356;-74
2023/10/26 02:56:55;;;;;;;8.18;7.38;;;;;;;11.70;100.00;98578.66;7397276;19;20356;-74
2023/10/26 02:59:21;;;;;;;8.35;7.55;;;;;;;11.71;100.00;98582.13;7392143;19;20876;-74
2023/10/26 03:01:48;;;;;;;8.05;7.35;;;;;;;11.72;100.00;98581.09;7391544;19;20369;-74
2023/10/26 03:04:15;;;;;;;8.63;7.82;;;;;;;11.72;100.00;98576.59;7395500;19;20372;-74
2023/10/26 03:06:42;;;;;;;9.25;8.40;;;;;;;11.75;100.00;98575.31;7396626;19;20356;-74
2023/10/26 03:09:09;;;;;;;8.38;7.60;;;;;;;11.74;100.00;98576.34;7392033;19;20364;-74
2023/10/26 03:11:36;;;;;;;9.20;8.40;;;;;;;11.74;100.00;98589.63;7395221;19;21058;-74
2023/10/26 03:14:04;;;;;;;9.33;8.53;;;;;;;11.75;100.00;98580.63;7394560;19;20760;-74
2023/10/26 03:16:32;;;;;;;9.00;8.10;;;;;;;11.77;100.00;98578.53;7395099;19;20383;-74
2023/10/26 03:18:59;;;;;;;9.20;8.35;;;;;;;11.77;100.00;98575.88;7392455;19;20348;-74
2023/10/26 03:21:27;;;;;;;8.75;7.95;;;;;;;11.77;100.00;98571.41;7393109;19;20365;-74
2023/10/26 03:23:54;;;;;;;9.40;8.50;;;;;;;11.77;100.00;98576.72;7396223;19;20373;-74
2023/10/26 03:26:21;;;;;;;8.88;8.05;;;;;;;11.74;100.00;98563.88;7395836;19;20360;-74
2023/10/26 03:28:49;;;;;;;8.63;7.82;;;;;;;11.74;100.00;98569.19;7392540;19;20374;-74
2023/10/26 03:31:16;;;;;;;10.10;8.40;;;;;;;11.75;100.00;98576.13;7392964;19;20438;-74
2023/10/26 03:33:43;;;;;;;8.82;7.93;;;;;;;11.76;100.00;98574.28;7392524;19;20340;-74
2023/10/26 03:36:19;;;;;;;8.85;7.95;;;;;;;11.74;100.00;98574.50;7395437;19;20382;-74
2023/10/26 03:38:47;;;;;;;9.18;8.27;;;;;;;11.74;100.00;98574.50;7392774;19;20365;-74
2023/10/26 03:41:14;;;;;;;9.15;8.25;;;;;;;11.74;100.00;98574.50;7393948;19;20364;-74
2023/10/26 03:43:41;;;;;;;8.55;7.75;;;;;;;11.73;100.00;98586.19;7392193;19;20359;-74
2023/10/26 03:46:10;;;;;;;8.35;7.55;;;;;;;11.74;100.00;98590.44;7387181;19;20369;-74
2023/10/26 03:48:37;;;;;;;7.60;6.90;;;;;;;11.75;100.00;98586.75;7387911;19;20428;-74
2023/10/26 03:51:04;;;;;;;8.27;7.53;;;;;;;11.75;100.00;98592.06;7393467;19;20356;-74
2023/10/26 03:53:32;;;;;;;7.68;6.97;;;;;;;11.75;100.00;98592.06;7391644;19;20437;-74
2023/10/26 03:55:59;;;;;;;7.72;7.03;;;;;;;11.75;100.00;98592.06;7388784;19;20372;-74
2023/10/26 03:58:27;;;;;;;7.75;6.93;;;;;;;11.75;100.00;98597.38;7389790;19;20376;-74
2023/10/26 04:00:56;;;;;;;8.00;7.30;;;;;;;11.75;100.00;98597.38;7392966;19;20439;-74
2023/10/26 04:03:24;;;;;;;7.95;7.18;;;;;;;11.77;100.00;98584.69;7390538;19;20453;-74
2023/10/26 04:05:52;;;;;;;8.07;7.28;;;;;;;11.78;100.00;98591.59;7395870;19;20373;-74
2023/10/26 04:08:19;;;;;;;7.78;7.07;;;;;;;11.77;100.00;98600.63;7392333;19;20372;-74
2023/10/26 04:10:46;;;;;;;8.45;7.63;;;;;;;11.74;100.00;98590.44;7389573;19;20464;-74
2023/10/26 04:13:13;;;;;;;8.00;7.20;;;;;;;11.72;100.00;98592.53;7392620;19;20364;-74
2023/10/26 04:15:40;;;;;;;8.70;7.75;;;;;;;11.70;100.00;98596.47;7389834;19;20352;-74
2023/10/26 04:18:07;;;;;;;8.15;7.35;;;;;;;11.67;100.00;98589.78;7389880;19;20367;-74
2023/10/26 04:20:34;;;;;;;7.73;6.93;;;;;;;11.67;100.00;98594.25;7391657;19;20890;-74
2023/10/26 04:23:01;;;;;;;7.65;6.85;;;;;;;11.65;100.00;98596.38;7391066;19;20424;-74
2023/10/26 04:25:28;;;;;;;8.10;7.30;;;;;;;11.63;100.00;98588.63;7394511;19;20328;-74
2023/10/26 04:28:16;;;;;;;8.33;7.53;;;;;;;11.60;100.00;98597.03;7391601;19;20356;-74
2023/10/26 04:30:49;;;;;;;7.90;7.10;;;;;;;11.59;100.00;98604.19;7393331;19;20384;-74
2023/10/26 04:33:17;;;;;;;6.90;6.20;;;;;;;11.57;100.00;98602.81;7391034;19;20424;-74
2023/10/26 04:35:46;;;;;;;7.35;6.65;;;;;;;11.59;100.00;98606.06;7393397;19;20331;-74
2023/10/26 04:38:13;;;;;;;6.90;6.25;;;;;;;11.61;100.00;98599.47;7390103;19;20415;-74
2023/10/26 04:40:41;;;;;;;7.28;6.57;;;;;;;11.63;100.00;98601.91;7393775;19;20735;-74
2023/10/26 04:43:11;;;;;;;7.35;6.65;;;;;;;11.63;100.00;98601.91;7395141;19;20340;-74
2023/10/26 04:45:38;;;;;;;7.85;7.07;;;;;;;11.63;100.00;98604.56;7390742;19;20368;-74
2023/10/26 04:48:05;;;;;;;7.45;6.65;;;;;;;11.62;100.00;98595.78;7394398;19;20877;-73
2023/10/26 04:50:32;;;;;;;7.10;6.40;;;;;;;11.64;100.00;98600.84;7394144;19;21003;-74
2023/10/26 04:53:02;;;;;;;7.10;6.40;;;;;;;11.62;100.00;98597.63;7394483;19;20372;-74
2023/10/26 04:55:33;;;;;;;6.97;6.22;;;;;;;11.58;100.00;98605.25;7389782;19;20351;-73
2023/10/26 04:58:01;;;;;;;6.50;5.90;;;;;;;11.56;100.00;98594.06;7394491;19;20375;-74
2023/10/26 05:00:29;;;;;;;6.78;5.88;;;;;;;11.54;100.00;98596.13;7391497;19;20352;-73
2023/10/26 05:02:56;;;;;;;6.60;6.00;;;;;;;11.54;100.00;98605.94;7383326;19;20380;-74
2023/10/26 05:05:23;;;;;;;6.03;5.43;;;;;;;11.53;100.00;98604.31;7392267;19;20427;-73
2023/10/26 05:07:50;;;;;;;6.03;5.43;;;;;;;11.51;100.00;98607.22;7392432;19;20376;-73
2023/10/26 05:10:17;;;;;;;5.70;4.68;;;;;;;11.50;100.00;98610.13;7394431;19;20367;-74
2023/10/26 05:12:44;;;;;;;6.43;5.20;;;;;;;11.49;100.00;98614.59;7393372;19;20368;-73
2023/10/26 05:15:11;;;;;;;5.20;4.40;;;;;;;11.47;100.00;98613.22;7393451;19;20349;-73
2023/10/26 05:17:38;;;;;;;5.00;4.50;;;;;;;11.48;100.00;98612.19;7392687;19;20368;-73
2023/10/26 05:20:07;;;;;;;4.68;4.25;;;;;;;11.47;100.00;98615.88;7392183;19;20388;-73
2023/10/26 05:22:34;;;;;;;4.70;3.80;;;;;;;11.45;100.00;98613.44;7393563;19;20376;-73
2023/10/26 05:25:04;;;;;;;4.23;3.83;;;;;;;11.47;100.00;98621.97;7393591;19;20368;-73
2023/10/26 05:27:34;;;;;;;4.40;4.00;;;;;;;11.49;100.00;98625.22;7392223;19;20379;-73
2023/10/26 05:30:04;;;;;;;5.03;4.18;;;;;;;11.51;100.00;98622.34;7391225;19;20353;-74
2023/10/26 05:32:32;;;;;;;4.72;4.22;;;;;;;11.53;100.00;98625.56;7391146;19;20356;-73
2023/10/26 05:34:59;;;;;;;5.80;4.13;;;;;;;11.54;100.00;98622.69;7392739;19;20881;-73
2023/10/26 05:37:26;;;;;;;15.13;8.93;;;;;;;11.54;100.00;98625.34;7387528;19;20356;-73
2023/10/26 05:39:52;;;;;;;92.13;49.42;;;;;;;11.54;100.00;98632.47;7390521;19;20338;-73
2023/10/26 05:42:19;;;;;;;16.85;10.40;;;;;;;11.55;100.00;98626.94;7392244;19;20360;-73
2023/10/26 05:44:46;;;;;;;196.73;133.02;;;;;;;11.54;100.00;98627.16;7391811;19;20420;-73
2023/10/26 05:47:15;;;;;;;132.53;89.43;;;;;;;11.56;100.00;98627.75;7391629;19;20366;-74
2023/10/26 05:49:46;;;;;;;4.50;3.60;;;;;;;11.53;100.00;98626.38;7389044;19;20376;-74
2023/10/26 05:52:13;;;;;;;3.50;3.17;;;;;;;11.50;100.00;98632.16;7394264;19;20368;-73
2023/10/26 05:54:40;;;;;;;4.43;3.60;;;;;;;11.52;100.00;98626.63;7390650;19;20375;-78
2023/10/26 05:57:07;;;;;;;4.30;3.90;;;;;;;11.57;100.00;98626.72;7390182;19;20357;-78
2023/10/26 05:59:34;;;;;;;4.00;3.50;;;;;;;11.57;100.00;98632.84;7391348;19;20760;-78
2023/10/26 06:02:02;;;;;;;4.47;3.80;;;;;;;11.58;100.00;98633.63;7388622;19;20865;-78
2023/10/26 06:04:29;;;;;;;4.30;3.65;;;;;;;11.57;100.00;98634.69;7393444;19;20375;-78
2023/10/26 06:06:56;;;;;;;4.35;3.65;;;;;;;11.58;100.00;98636.28;7390288;19;20722;-78
2023/10/26 06:09:24;;;;;;;3.83;3.45;;;;;;;11.59;100.00;98637.94;7389573;19;20379;-78
2023/10/26 06:11:51;;;;;;;3.80;3.30;;;;;;;11.58;100.00;98644.25;7389519;19;20730;-78
2023/10/26 06:14:19;;;;;;;4.03;3.30;;;;;;;11.58;100.00;98645.09;7391678;19;20395;-78
2023/10/26 06:16:46;;;;;;;6.68;3.75;;;;;;;11.58;100.00;98644.25;7388671;19;20352;-78
2023/10/26 06:19:13;;;;;;;3.80;3.40;;;;;;;11.60;100.00;98644.84;7388223;19;20367;-77
2023/10/26 06:21:40;;;;;;;29.25;24.08;;;;;;;11.58;100.00;98644.25;7386953;19;20944;-77
2023/10/26 06:24:07;;;;;;;52.67;42.55;;;;;;;11.57;100.00;98642.66;7390979;19;20364;-77
2023/10/26 06:26:34;;;;;;;7.95;7.15;;;;;;;11.55;100.00;98644.75;7390449;19;20360;-78
2023/10/26 06:29:01;;;;;;;3.90;3.40;;;;;;;11.53;100.00;98657.44;7390695;19;20376;-78
2023/10/26 06:31:28;;;;;;;4.82;4.20;;;;;;;11.54;100.00;98649.25;7388658;19;20348;-78
2023/10/26 06:33:55;;;;;;;3.92;3.53;;;;;;;11.55;100.00;98650.84;7392093;19;20897;-78
2023/10/26 06:36:22;;;;;;;6.10;3.72;;;;;;;11.58;100.00;98654.88;7400031;19;20359;-78
2023/10/26 06:38:48;;;;;;;3.50;3.20;;;;;;;11.57;100.00;98658.59;7398913;19;20737;-78
2023/10/26 06:41:15;;;;;;;3.80;3.40;;;;;;;11.58;100.00;98655.72;7394728;19;20348;-78
2023/10/26 06:43:42;;;;;;;3.45;3.08;;;;;;;11.60;100.00;98650.16;7396467;19;20345;-78
2023/10/26 06:46:09;;;;;;;3.60;3.30;;;;;;;11.61;100.00;98663.19;7392939;19;20419;-78
2023/10/26 06:48:36;;;;;;;3.70;3.30;;;;;;;11.63;100.00;98668.28;7395645;19;20369;-78
2023/10/26 06:51:04;;;;;;;4.13;3.70;;;;;;;11.64;100.00;98669.91;7397419;19;20358;-78
2023/10/26 06:53:31;;;;;;;4.57;3.72;;;;;;;11.65;100.00;98668.88;7396305;19;20438;-78
2023/10/26 06:55:58;;;;;;;4.88;4.00;;;;;;;11.66;100.00;98670.47;7398296;19;20368;-78
2023/10/26 06:58:25;;;;;;;4.30;3.90;;;;;;;11.65;100.00;98665.41;7395054;19;20384;-77
2023/10/26 07:00:52;;;;;;;3.80;3.40;;;;;;;11.63;100.00;98673.59;7392327;19;20385;-77
2023/10/26 07:03:20;;;;;;;3.40;2.80;;;;;;;11.64;100.00;98675.19;7391555;19;20852;-78
2023/10/26 07:05:48;;;;;;;3.22;2.90;;;;;;;11.66;100.00;98673.13;7393724;19;20975;-77
2023/10/26 07:08:16;;;;;;;3.30;3.00;;;;;;;11.68;100.00;98676.34;7398066;19;20845;-77
2023/10/26 07:10:43;;;;;;;29.98;21.75;;;;;;;11.71;100.00;98675.91;7399107;19;20452;-77
2023/10/26 07:13:10;;;;;;;5.53;4.70;;;;;;;11.75;100.00;98674.41;7394445;19;20398;-75
2023/10/26 07:15:37;;;;;;;8.02;7.07;;;;;;;11.78;100.00;98679.25;7398916;19;20380;-75
2023/10/26 07:18:04;;;;;;;4.20;3.58;;;;;;;11.77;100.00;98677.66;7398033;19;20698;-76
2023/10/26 07:20:32;;;;;;;4.03;3.35;;;;;;;11.75;100.00;98676.22;7390988;19;20547;-75
2023/10/26 07:22:59;;;;;;;7.88;6.57;;;;;;;11.75;100.00;98679.72;7394499;19;20368;-76
2023/10/26 07:25:26;;;;;;;12.27;9.23;;;;;;;11.79;100.00;98683.53;7396898;19;20364;-76
2023/10/26 07:27:53;;;;;;;12.02;10.27;;;;;;;11.83;100.00;98686.50;7394749;19;20461;-75
2023/10/26 07:30:20;;;;;;;3.25;2.83;;;;;;;11.84;100.00;98686.28;7395790;19;20952;-75
2023/10/26 07:32:47;;;;;;;3.33;2.58;;;;;;;11.88;100.00;98693.78;7395668;19;20357;-75
2023/10/26 07:35:14;;;;;;;3.45;2.55;;;;;;;11.89;100.00;98701.56;7394309;19;20431;-76
2023/10/26 07:37:41;;;;;;;6.53;4.73;;;;;;;11.94;100.00;98695.53;7397662;19;20360;-76
2023/10/26 07:40:12;;;;;;;10.52;6.30;;;;;;;11.98;100.00;98700.16;7391486;19;20376;-74
2023/10/26 07:42:55;;;;;;;6.57;3.30;;;;;;;12.02;100.00;98703.16;7396093;19;20360;-75
2023/10/26 07:45:22;;;;;;;3.20;2.50;;;;;;;12.02;99.76;98703.16;7393697;19;20386;-76
2023/10/26 07:47:49;;;;;;;4.18;3.42;;;;;;;12.03;99.58;98694.16;7395577;19;20369;-75
2023/10/26 07:50:19;;;;;;;26.23;18.20;;;;;;;12.07;99.80;98707.78;7397273;19;20356;-75
2023/10/26 07:52:47;;;;;;;7.63;5.32;;;;;;;12.07;99.47;98705.94;7394846;19;20367;-75
2023/10/26 07:55:15;;;;;;;35.28;20.70;;;;;;;12.05;99.31;98708.03;7393530;19;20416;-76
2023/10/26 07:57:42;;;;;;;47.22;30.00;;;;;;;12.08;99.33;98712.06;7390674;19;21087;-76
2023/10/26 08:00:11;;;;;;;3.92;2.80;;;;;;;12.09;99.33;98708.34;7392723;19;20368;-76
2023/10/26 08:02:39;;;;;;;2.70;2.30;;;;;;;12.13;99.34;98718.28;7389189;19;20883;-76
2023/10/26 08:05:09;;;;;;;2.50;2.08;;;;;;;12.13;99.06;98718.28;7394772;19;20368;-76
2023/10/26 08:07:37;;;;;;;3.10;2.30;;;;;;;12.19;99.20;98720.00;7391313;19;20419;-76
2023/10/26 08:10:04;;;;;;;3.20;2.40;;;;;;;12.23;99.05;98720.34;7394346;19;20398;-76
2023/10/26 08:12:31;;;;;;;3.25;2.40;;;;;;;12.24;98.94;98717.47;7391503;19;20347;-76
2023/10/26 08:14:58;;;;;;;2.40;2.00;;;;;;;12.23;98.32;98721.16;7391898;19;20631;-76
2023/10/26 08:17:45;;;;;;;2.10;1.90;;;;;;;12.21;98.25;98727.75;7391552;19;20337;-76
2023/10/26 08:20:16;;;;;;;3.80;2.00;;;;;;;12.25;98.46;98723.59;7393160;19;20360;-76
2023/10/26 08:22:43;;;;;;;2.78;2.10;;;;;;;12.26;98.49;98721.72;7395383;19;20353;-76
2023/10/26 08:25:11;;;;;;;2.80;2.20;;;;;;;12.29;98.48;98724.72;7395119;19;20355;-76
2023/10/26 08:27:39;;;;;;;2.35;2.10;;;;;;;12.30;98.22;98730.84;7397265;19;21321;-76
2023/10/26 08:30:06;;;;;;;2.30;2.00;;;;;;;12.27;98.11;98732.13;7394560;19;20777;-76
2023/10/26 08:32:33;;;;;;;2.20;1.90;;;;;;;12.27;98.03;98732.13;7393173;19;20360;-76
2023/10/26 08:35:00;;;;;;;2.50;1.90;;;;;;;12.30;98.13;98730.84;7389919;19;20376;-76
2023/10/26 08:37:30;;;;;;;2.10;1.75;;;;;;;12.31;98.18;98727.16;7391848;19;20352;-76
2023/10/26 08:39:57;;;;;;;2.85;2.08;;;;;;;12.37;98.36;98734.22;7391151;19;20920;-76
2023/10/26 08:42:24;;;;;;;3.30;1.80;;;;;;;12.41;98.26;98738.00;7391836;19;20348;-76
2023/10/26 08:44:55;;;;;;;2.30;2.08;;;;;;;12.44;97.91;98741.00;7392072;19;20324;-76
2023/10/26 08:47:24;;;;;;;2.42;2.00;;;;;;;12.47;97.98;98737.06;7391818;19;20873;-76
2023/10/26 08:49:54;;;;;;;2.95;1.98;;;;;;;12.47;97.68;98734.41;7390837;19;20355;-76
2023/10/26 08:52:41;;;;;;;2.20;1.83;;;;;;;12.47;97.48;98742.38;7391764;19;20872;-76
2023/10/26 08:55:08;;;;;;;2.43;1.70;;;;;;;12.49;97.70;98747.47;7391536;19;20344;-76
2023/10/26 08:57:50;;;;;;;2.40;1.60;;;;;;;12.52;97.64;98749.66;7392785;19;20403;-76
2023/10/26 09:00:18;;;;;;;2.75;1.70;;;;;;;12.58;97.86;98744.22;7393268;19;20412;-76
2023/10/26 09:02:47;;;;;;;3.33;1.67;;;;;;;12.67;97.67;98746.50;7393754;19;20365;-76
2023/10/26 09:05:15;;;;;;;2.30;1.50;;;;;;;12.70;97.16;98738.84;7393722;19;20336;-76
2023/10/26 09:07:42;;;;;;;1.83;1.25;;;;;;;12.75;97.30;98738.13;7393696;19;20885;-76
2023/10/26 09:10:09;;;;;;;1.70;1.30;;;;;;;12.79;96.74;98749.91;7389436;19;20333;-76
2023/10/26 09:12:36;;;;;;;2.25;1.20;;;;;;;12.82;96.74;98746.78;7391476;19;20361;-76
2023/10/26 09:15:08;;;;;;;1.80;1.10;;;;;;;12.87;96.37;98746.06;7390122;19;20861;-76
2023/10/26 09:17:35;;;;;;;2.08;1.20;;;;;;;12.93;96.29;98732.63;7391357;19;20344;-76
2023/10/26 09:20:17;;;;;;;1.60;1.27;;;;;;;13.03;96.44;98743.47;7392088;19;20367;-76
2023/10/26 09:22:44;;;;;;;2.72;1.60;;;;;;;13.14;96.46;98746.31;7391328;19;20344;-76
2023/10/26 09:25:13;;;;;;;4.60;3.35;;;;;;;13.20;95.46;98740.03;7392296;19;20732;-76
2023/10/26 09:27:41;;;;;;;2.08;1.63;;;;;;;13.27;95.39;98740.66;7390315;19;20368;-77
2023/10/26 09:30:24;;;;;;;14.52;10.98;;;;;;;13.33;95.02;98739.75;7387259;19;20392;-77
2023/10/26 09:32:51;;;;;;;25.37;17.00;;;;;;;13.39;94.87;98738.78;7393183;19;20360;-76
2023/10/26 09:35:32;;;;;;;32.35;18.40;;;;;;;13.43;94.25;98744.41;7394686;19;20361;-75
2023/10/26 09:37:59;;;;;;;5.53;4.50;;;;;;;13.43;93.92;98745.25;7391058;19;20955;-75
2023/10/26 09:40:27;;;;;;;2.03;1.30;;;;;;;13.43;93.50;98750.56;7393547;19;20452;-75
2023/10/26 09:42:58;;;;;;;2.70;1.00;;;;;;;13.39;93.28;98749.44;7390757;19;20341;-75
2023/10/26 09:45:25;;;;;;;195.55;133.43;;;;;;;13.41;93.78;98751.88;7391527;19;20340;-76
2023/10/26 09:47:52;;;;;;;2.25;1.48;;;;;;;13.38;93.46;98758.47;7389614;19;20391;-75
2023/10/26 09:50:20;;;;;;;3.42;1.50;;;;;;;13.40;93.57;98753.69;7391629;19;20372;-75
2023/10/26 09:52:48;;;;;;;1.80;1.00;;;;;;;13.40;93.54;98767.00;7391664;19;20378;-75
2023/10/26 09:55:16;;;;;;;6.33;4.83;;;;;;;13.43;93.50;98761.22;7393136;19;20383;-75
2023/10/26 09:58:05;;;;;;;14.70;9.55;;;;;;;13.38;92.43;98763.78;7391052;19;20435;-75
2023/10/26 10:00:34;;;;;;;1.67;1.20;;;;;;;13.37;92.98;98769.38;7387928;19;20463;-75
2023/10/26 10:03:42;;;;;;;2.00;1.20;;;;;;;13.39;93.55;98765.41;7389451;19;20370;-75
2023/10/26 10:06:44;;;;;;;1.35;0.90;;;;;;;13.33;92.98;98763.72;7393743;19;20729;-75
2023/10/26 10:09:11;;;;;;;1.25;0.80;;;;;;;13.31;93.10;98773.78;7390729;19;20849;-75
2023/10/26 10:11:39;;;;;;;1.67;1.08;;;;;;;13.30;93.33;98771.38;7396034;19;20361;-75
2023/10/26 10:14:07;;;;;;;1.50;1.00;;;;;;;13.35;93.80;98774.13;7398607;19;20357;-75
2023/10/26 10:16:34;;;;;;;2.03;1.53;;;;;;;13.39;93.92;98769.94;7396702;19;20687;-76
2023/10/26 10:19:23;;;;;;;7.50;4.78;;;;;;;13.41;93.48;98767.84;7399570;19;20336;-75
2023/10/26 10:21:51;;;;;;;13.05;8.38;;;;;;;13.45;93.11;98772.44;7391295;19;20423;-75
2023/10/26 10:24:37;;;;;;;7.40;5.75;;;;;;;13.43;92.65;98763.88;7396627;19;20903;-75
2023/10/26 10:27:15;;;;;;;2.47;1.55;;;;;;;13.45;92.93;98768.94;7397646;19;20364;-76
2023/10/26 10:29:42;;;;;;;1.48;1.05;;;;;;;13.47;92.95;98761.53;7400742;19;20361;-76
2023/10/26 10:32:10;;;;;;;1.75;1.05;;;;;;;13.49;92.87;98766.63;7395945;19;20737;-76
2023/10/26 10:34:46;;;;;;;7.47;5.95;;;;;;;13.50;92.78;98776.25;7397474;19;20372;-76
2023/10/26 10:37:17;;;;;;;9.90;7.68;;;;;;;13.53;92.52;98775.75;7398722;19;20332;-76
2023/10/26 10:40:15;;;;;;;4.05;2.42;;;;;;;13.52;92.42;98776.81;7393378;19;20370;-76
2023/10/26 10:42:48;;;;;;;4.32;2.30;;;;;;;13.53;92.53;98770.41;7396751;19;20348;-76
2023/10/26 10:45:17;;;;;;;20.58;15.50;;;;;;;13.53;92.34;98775.75;7392829;19;20368;-76
2023/10/26 10:47:45;;;;;;;2.20;1.23;;;;;;;13.50;91.99;98777.03;7397228;19;20360;-76
2023/10/26 10:50:15;;;;;;;17.20;10.85;;;;;;;13.48;92.35;98775.69;7397753;19;20721;-76
2023/10/26 10:52:42;;;;;;;2.75;1.73;;;;;;;13.46;92.25;98776.72;7394820;19;20377;-76
2023/10/26 10:55:09;;;;;;;3.20;1.80;;;;;;;13.44;92.37;98776.16;7396374;19;20364;-76
2023/10/26 10:57:53;;;;;;;2.50;1.40;;;;;;;13.43;92.58;98769.22;7397020;19;20336;-75
2023/10/26 11:00:22;;;;;;;1.95;1.10;;;;;;;13.39;92.31;98768.06;7397755;19;20372;-75
2023/10/26 11:02:49;;;;;;;2.20;1.40;;;;;;;13.38;92.47;98777.09;7394209;19;20738;-77
2023/10/26 11:05:16;;;;;;;2.35;1.30;;;;;;;13.35;92.34;98774.94;7396058;19;20368;-77
2023/10/26 11:07:44;;;;;;;2.10;1.20;;;;;;;13.37;92.37;98782.69;7397963;19;20859;-77
2023/10/26 11:10:11;;;;;;;3.08;1.20;;;;;;;13.39;92.46;98773.41;7392385;19;20343;-77
2023/10/26 11:12:38;;;;;;;2.15;1.10;;;;;;;13.40;92.31;98772.34;7396846;19;20360;-77
2023/10/26 11:15:07;;;;;;;2.25;1.60;;;;;;;13.44;92.34;98773.47;7392281;19;20357;-77
2023/10/26 11:17:34;;;;;;;2.10;1.40;;;;;;;13.40;92.11;98780.34;7395011;19;20868;-76
2023/10/26 11:20:03;;;;;;;2.00;1.40;;;;;;;13.39;92.10;98780.59;7395382;19;20329;-77
2023/10/26 11:22:29;;;;;;;3.22;1.40;;;;;;;13.38;91.98;98779.75;7392565;19;20362;-76
2023/10/26 11:24:57;;;;;;;2.70;1.30;;;;;;;13.38;92.25;98782.44;7396797;19;20357;-76
2023/10/26 11:27:24;;;;;;;1.98;1.40;;;;;;;13.40;92.40;98785.66;7396870;19;20427;-76
2023/10/26 11:30:03;;;;;;;1.80;1.30;;;;;;;13.41;92.15;98789.16;7390779;19;20770;-77
2023/10/26 11:32:30;;;;;;;3.85;2.33;;;;;;;13.36;92.02;98794.38;7392303;19;20882;-75
2023/10/26 11:35:11;;;;;;;2.40;1.67;;;;;;;13.37;92.01;98791.47;7394988;19;20887;-75